Time;durP1;ratioP1;P1;durP2;ratioP2;P2;SDS_P1;SDS_P2;PMS_P1;PMS_P2;Temp;Humidity;BMP_temperature;BMP_pressure;BME280_temperature;BME280_humidity;BME280_pressure;Samples;Min_cycle;Max_cycle;Signal;HPM_P1;HPM_P2
2023/07/02 00:02:03;;;;;;;81.32;76.85;;;;;;;23.15;45.95;100628.16;5092022;28;20052;-71
2023/07/02 00:04:29;;;;;;;80.90;76.50;;;;;;;23.13;46.21;100619.41;5091882;28;20119;-70
2023/07/02 00:06:54;;;;;;;80.80;76.72;;;;;;;23.12;46.09;100620.56;5093172;28;20040;-70
2023/07/02 00:09:20;;;;;;;79.88;75.53;;;;;;;23.12;45.96;100623.31;5093104;28;20383;-71
2023/07/02 00:11:45;;;;;;;82.85;78.45;;;;;;;23.10;46.02;100626.41;5092621;28;20028;-70
2023/07/02 00:14:11;;;;;;;83.38;79.18;;;;;;;23.09;45.96;100618.47;5095038;28;20532;-70
2023/07/02 00:16:39;;;;;;;79.85;75.55;;;;;;;23.08;46.41;100605.81;5097044;28;20445;-70
2023/07/02 00:19:05;;;;;;;80.97;76.20;;;;;;;23.08;45.94;100614.09;5097331;28;20098;-70
2023/07/02 00:21:32;;;;;;;79.25;75.00;;;;;;;23.05;46.25;100610.03;5096402;28;20050;-71
2023/07/02 00:23:58;;;;;;;79.78;75.43;;;;;;;23.04;45.92;100611.19;5095813;28;20036;-70
2023/07/02 00:26:27;;;;;;;82.05;77.30;;;;;;;23.05;45.85;100614.75;5095868;28;20054;-70
2023/07/02 00:28:54;;;;;;;78.70;74.18;;;;;;;23.03;46.24;100619.78;5097205;28;20448;-70
2023/07/02 00:31:20;;;;;;;78.85;74.80;;;;;;;23.03;46.21;100622.53;5096552;28;20032;-73
2023/07/02 00:33:45;;;;;;;79.05;74.93;;;;;;;23.00;46.24;100612.97;5096809;28;20034;-71
2023/07/02 00:36:14;;;;;;;79.45;74.90;;;;;;;23.00;45.83;100623.19;5096530;28;20024;-70
2023/07/02 00:38:49;;;;;;;80.07;75.50;;;;;;;22.99;46.30;100624.34;5096384;28;20026;-70
2023/07/02 00:41:15;;;;;;;82.38;76.95;;;;;;;22.96;46.31;100623.03;5096503;28;20058;-70
2023/07/02 00:43:43;;;;;;;82.65;76.88;;;;;;;22.97;46.16;100626.59;5096565;28;20032;-69
2023/07/02 00:46:19;;;;;;;81.28;76.78;;;;;;;22.95;46.11;100623.34;5096104;28;20032;-70
2023/07/02 00:48:50;;;;;;;83.47;77.68;;;;;;;22.94;46.12;100630.81;5096859;28;20028;-70
2023/07/02 00:51:17;;;;;;;80.03;75.20;;;;;;;22.94;45.83;100632.75;5096538;28;20028;-70
2023/07/02 00:53:47;;;;;;;79.97;75.55;;;;;;;22.92;46.27;100635.84;5096630;28;20444;-71
2023/07/02 00:56:12;;;;;;;81.20;76.55;;;;;;;22.91;46.14;100639.75;5096577;28;20028;-72
2023/07/02 00:58:46;;;;;;;85.75;80.45;;;;;;;22.89;46.10;100642.81;5095915;28;20032;-71
2023/07/02 01:01:13;;;;;;;80.80;76.40;;;;;;;22.88;45.88;100635.69;5096375;28;20121;-70
2023/07/02 01:03:40;;;;;;;81.70;76.72;;;;;;;22.88;45.85;100632.09;5096679;28;20032;-71
2023/07/02 01:06:05;;;;;;;82.70;77.78;;;;;;;22.87;46.29;100636.00;5096407;28;20036;-70
2023/07/02 01:08:30;;;;;;;85.93;80.07;;;;;;;22.86;46.02;100639.91;5077531;28;20388;-69
2023/07/02 01:10:57;;;;;;;81.93;77.32;;;;;;;22.85;46.06;100641.84;5094695;28;20111;-71
2023/07/02 01:13:24;;;;;;;90.85;85.75;;;;;;;22.83;45.73;100644.13;5095563;28;20464;-74
2023/07/02 01:15:50;;;;;;;85.28;80.53;;;;;;;22.82;46.13;100637.00;5096045;28;20048;-70
2023/07/02 01:18:15;;;;;;;84.32;79.38;;;;;;;22.80;45.77;100639.25;5095655;28;20472;-71
2023/07/02 01:20:42;;;;;;;84.93;80.00;;;;;;;22.80;46.00;100650.28;5095592;28;20036;-70
2023/07/02 01:23:09;;;;;;;86.03;80.80;;;;;;;22.79;46.27;100656.94;5095620;28;20028;-71
2023/07/02 01:25:36;;;;;;;84.10;79.07;;;;;;;22.78;45.66;100649.81;5094440;28;20094;-70
2023/07/02 01:28:04;;;;;;;82.85;77.47;;;;;;;22.77;46.16;100648.19;5095742;28;20508;-69
2023/07/02 01:30:29;;;;;;;85.43;80.35;;;;;;;22.76;46.25;100649.34;5094785;28;20115;-69
2023/07/02 01:32:55;;;;;;;82.95;77.85;;;;;;;22.76;45.80;100648.53;5095873;28;20078;-69
2023/07/02 01:35:20;;;;;;;85.88;80.72;;;;;;;22.75;45.70;100658.72;5095402;28;20064;-69
2023/07/02 01:37:46;;;;;;;84.72;79.30;;;;;;;22.74;45.84;100653.53;5095462;28;20486;-69
2023/07/02 01:40:11;;;;;;;80.93;76.32;;;;;;;22.73;45.84;100655.50;5095581;28;20035;-70
2023/07/02 01:42:37;;;;;;;84.82;79.57;;;;;;;22.73;46.17;100661.00;5094915;28;20059;-69
2023/07/02 01:45:03;;;;;;;84.45;79.07;;;;;;;22.72;46.32;100664.06;5095197;28;20073;-70
2023/07/02 01:47:28;;;;;;;84.97;79.97;;;;;;;22.71;46.18;100660.50;5095043;28;20035;-70
2023/07/02 01:49:54;;;;;;;85.75;80.53;;;;;;;22.68;46.29;100667.47;5095591;28;20367;-70
2023/07/02 01:52:19;;;;;;;83.28;77.40;;;;;;;22.68;45.76;100669.44;5095350;28;20044;-69
2023/07/02 01:54:45;;;;;;;85.65;80.50;;;;;;;22.66;46.09;100664.25;5094145;28;20480;-69
2023/07/02 01:57:10;;;;;;;84.13;78.25;;;;;;;22.66;46.20;100664.25;5095503;28;20456;-69
2023/07/02 01:59:36;;;;;;;82.65;77.22;;;;;;;22.65;46.13;100664.56;5094817;28;20032;-69
2023/07/02 02:02:02;;;;;;;85.93;80.28;;;;;;;22.65;45.96;100667.31;5093664;28;20048;-69
2023/07/02 02:04:27;;;;;;;83.45;78.20;;;;;;;22.64;46.30;100663.75;5093627;28;20032;-72
2023/07/02 02:06:53;;;;;;;83.50;77.68;;;;;;;22.63;46.05;100662.16;5094987;28;20031;-70
2023/07/02 02:09:18;;;;;;;84.68;79.13;;;;;;;22.62;46.32;100670.72;5076619;28;20043;-70
2023/07/02 02:11:48;;;;;;;84.00;78.57;;;;;;;22.61;46.21;100669.13;5094598;28;20085;-70
2023/07/02 02:14:13;;;;;;;82.03;77.07;;;;;;;22.60;45.72;100672.97;5093410;28;20107;-70
2023/07/02 02:16:38;;;;;;;86.60;80.47;;;;;;;22.58;45.84;100672.50;5094526;28;20433;-70
2023/07/02 02:19:05;;;;;;;80.50;75.80;;;;;;;22.56;46.03;100669.28;5094486;28;20028;-70
2023/07/02 02:21:30;;;;;;;81.40;76.53;;;;;;;22.55;46.07;100668.44;5093122;28;20122;-72
2023/07/02 02:23:56;;;;;;;83.22;77.78;;;;;;;22.55;46.22;100668.44;5094544;28;20126;-69
2023/07/02 02:26:22;;;;;;;85.15;80.00;;;;;;;22.54;45.78;100669.59;5094046;28;20032;-69
2023/07/02 02:28:49;;;;;;;82.25;77.70;;;;;;;22.53;46.16;100675.41;5094783;28;20080;-70
2023/07/02 02:31:15;;;;;;;81.85;77.15;;;;;;;22.52;45.93;100676.56;5094633;28;20118;-70
2023/07/02 02:33:41;;;;;;;81.78;76.70;;;;;;;22.51;46.23;100680.47;5094236;28;20032;-70
2023/07/02 02:36:06;;;;;;;82.07;77.28;;;;;;;22.50;46.11;100685.13;5094252;28;20039;-70
2023/07/02 02:38:33;;;;;;;81.90;77.03;;;;;;;22.47;45.93;100680.28;5094063;28;20033;-73
2023/07/02 02:40:59;;;;;;;80.75;75.68;;;;;;;22.47;46.11;100692.09;5094229;28;20032;-70
2023/07/02 02:43:24;;;;;;;84.40;79.15;;;;;;;22.46;46.02;100690.50;5094237;28;20076;-70
2023/07/02 02:45:49;;;;;;;78.80;74.55;;;;;;;22.45;45.82;100699.06;5093803;28;20032;-69
2023/07/02 02:48:15;;;;;;;77.10;72.00;;;;;;;22.44;45.97;100697.44;5094089;28;20089;-70
2023/07/02 02:50:42;;;;;;;79.78;74.95;;;;;;;22.42;46.39;100700.50;5093973;28;20034;-70
2023/07/02 02:53:08;;;;;;;83.10;77.67;;;;;;;22.42;46.16;100706.03;5092803;28;20109;-70
2023/07/02 02:55:35;;;;;;;82.72;77.82;;;;;;;22.40;45.91;100700.06;5092882;28;20294;-72
2023/07/02 02:58:00;;;;;;;80.47;75.10;;;;;;;22.39;46.04;100698.41;5092946;28;20060;-70
2023/07/02 03:00:25;;;;;;;79.40;74.75;;;;;;;22.39;46.14;100705.88;5092711;28;20064;-70
2023/07/02 03:02:51;;;;;;;81.10;76.35;;;;;;;22.38;46.09;100710.56;5093951;28;20055;-70
2023/07/02 03:05:16;;;;;;;81.90;77.05;;;;;;;22.36;45.67;100707.31;5092666;28;20079;-69
2023/07/02 03:07:42;;;;;;;80.18;75.43;;;;;;;22.35;45.88;100710.38;5075810;28;20123;-70
2023/07/02 03:10:08;;;;;;;80.45;75.40;;;;;;;22.35;45.92;100710.38;5093754;28;20082;-70
2023/07/02 03:12:33;;;;;;;77.18;71.95;;;;;;;22.32;45.74;100711.84;5092915;28;20032;-73
2023/07/02 03:14:58;;;;;;;82.82;78.00;;;;;;;22.32;46.06;100717.34;5094195;28;20035;-70
2023/07/02 03:17:24;;;;;;;76.35;71.82;;;;;;;22.31;46.13;100714.94;5076282;28;20036;-70
2023/07/02 03:19:50;;;;;;;79.40;74.55;;;;;;;22.29;45.72;100720.75;5093242;28;20539;-70
2023/07/02 03:22:16;;;;;;;76.55;72.45;;;;;;;22.28;45.73;100721.91;5092311;28;20514;-70
2023/07/02 03:24:41;;;;;;;78.13;73.63;;;;;;;22.28;45.57;100726.59;5093536;28;20028;-70
2023/07/02 03:27:07;;;;;;;78.10;73.78;;;;;;;22.27;45.67;100724.97;5093530;28;20036;-70
2023/07/02 03:29:34;;;;;;;77.95;73.75;;;;;;;22.24;45.36;100724.47;5093610;28;20070;-70
2023/07/02 03:32:00;;;;;;;77.88;73.35;;;;;;;22.24;45.51;100729.16;5093467;28;20032;-70
2023/07/02 03:34:26;;;;;;;77.60;73.35;;;;;;;22.22;45.35;100725.91;5093948;28;20086;-70
2023/07/02 03:36:51;;;;;;;78.93;74.28;;;;;;;22.21;45.34;100735.31;5093660;28;20039;-70
2023/07/02 03:39:17;;;;;;;75.32;71.18;;;;;;;22.19;45.64;100732.88;5093411;28;20131;-70
2023/07/02 03:41:45;;;;;;;78.05;73.75;;;;;;;22.18;45.77;100733.97;5093378;28;20040;-70
2023/07/02 03:44:11;;;;;;;;;;;;;;;22.17;45.67;100734.28;5092516;28;20040;-70
2023/07/02 03:46:36;;;;;;;74.13;69.90;;;;;;;22.14;45.53;100741.25;5093162;28;20273;-73
2023/07/02 03:49:05;;;;;;;74.05;70.05;;;;;;;22.12;45.17;100740.75;5094896;28;20085;-69
2023/07/02 03:51:30;;;;;;;;;;;;;;;22.11;45.54;100738.34;5096656;28;20445;-69
2023/07/02 03:53:56;;;;;;;76.68;71.50;;;;;;;22.08;45.37;100739.00;5096175;28;20006;-70
2023/07/02 03:56:21;;;;;;;74.75;70.43;;;;;;;22.06;45.39;100741.25;5097586;28;20376;-69
2023/07/02 03:58:47;;;;;;;76.65;72.65;;;;;;;22.05;45.03;100743.19;5096841;28;20083;-70
2023/07/02 04:01:13;;;;;;;74.22;70.22;;;;;;;22.03;45.32;100743.50;5097082;28;20035;-70
2023/07/02 04:03:38;;;;;;;75.57;71.47;;;;;;;22.02;45.55;100747.41;5097950;28;20445;-72
2023/07/02 04:06:07;;;;;;;75.35;70.30;;;;;;;22.02;45.36;100743.81;5097151;28;20472;-70
2023/07/02 04:08:32;;;;;;;72.70;68.80;;;;;;;22.00;45.24;100748.84;5097383;28;20141;-70
2023/07/02 04:10:58;;;;;;;74.07;69.82;;;;;;;21.99;45.30;100750.75;5096981;28;20144;-69
2023/07/02 04:13:23;;;;;;;78.07;73.97;;;;;;;21.98;45.32;100751.09;5097061;28;20032;-69
2023/07/02 04:15:49;;;;;;;79.75;75.32;;;;;;;21.97;45.32;100754.97;5095640;28;20051;-70
2023/07/02 04:18:14;;;;;;;73.95;70.00;;;;;;;21.96;44.89;100745.91;5096841;28;20032;-70
2023/07/02 04:20:40;;;;;;;76.32;72.07;;;;;;;21.95;44.99;100757.25;5095595;28;20081;-73
2023/07/02 04:23:06;;;;;;;75.10;71.10;;;;;;;21.94;45.19;100764.66;5096803;28;20024;-70
2023/07/02 04:25:31;;;;;;;76.00;71.57;;;;;;;21.92;44.75;100755.09;5096813;28;20403;-70
2023/07/02 04:27:58;;;;;;;76.00;71.80;;;;;;;21.92;45.22;100761.41;5095869;28;20177;-70
2023/07/02 04:30:24;;;;;;;76.13;71.82;;;;;;;21.90;45.15;100763.69;5078693;28;20043;-70
2023/07/02 04:32:50;;;;;;;76.28;71.97;;;;;;;21.90;44.82;100771.09;5096869;28;20040;-70
2023/07/02 04:35:15;;;;;;;74.75;70.75;;;;;;;21.88;44.80;100768.69;5096812;28;20032;-70
2023/07/02 04:37:41;;;;;;;75.20;70.78;;;;;;;21.88;44.96;100771.44;5095246;28;20357;-73
2023/07/02 04:40:09;;;;;;;75.65;71.45;;;;;;;21.86;45.20;100776.44;5095807;28;20032;-70
2023/07/02 04:42:37;;;;;;;;;;;;;;;21.85;44.99;100783.09;5079259;28;20039;-70
2023/07/02 04:45:04;;;;;;;72.75;68.32;;;;;;;21.82;44.97;100778.19;5095124;28;20327;-70
2023/07/02 04:47:30;;;;;;;73.32;68.70;;;;;;;21.81;45.19;100782.09;5095060;28;20089;-70
2023/07/02 04:49:55;;;;;;;74.38;70.13;;;;;;;21.79;44.71;100776.91;5096244;28;20060;-70
2023/07/02 04:52:20;;;;;;;75.38;70.90;;;;;;;21.79;44.83;100784.34;5096534;28;20020;-69
2023/07/02 04:54:46;;;;;;;75.00;70.40;;;;;;;21.77;44.63;100784.69;5078089;28;20082;-70
2023/07/02 04:57:13;;;;;;;74.22;69.75;;;;;;;21.76;45.04;100782.22;5095436;28;20059;-69
2023/07/02 04:59:38;;;;;;;74.22;70.22;;;;;;;21.76;44.88;100793.22;5095030;28;20357;-69
2023/07/02 05:02:04;;;;;;;75.72;71.70;;;;;;;21.74;44.50;100787.22;5095423;28;20062;-69
2023/07/02 05:04:29;;;;;;;71.72;67.85;;;;;;;21.74;44.55;100784.47;5096302;28;20032;-70
2023/07/02 05:06:54;;;;;;;70.50;66.90;;;;;;;21.72;44.70;100790.31;5095679;28;20036;-70
2023/07/02 05:09:20;;;;;;;71.95;68.15;;;;;;;21.71;44.52;100802.41;5094747;28;20072;-69
2023/07/02 05:11:45;;;;;;;75.00;70.38;;;;;;;21.71;44.61;100807.13;5095880;28;20036;-73
2023/07/02 05:14:10;;;;;;;73.90;69.70;;;;;;;21.70;44.48;100805.50;5095798;28;20103;-70
2023/07/02 05:16:36;;;;;;;71.82;67.93;;;;;;;21.70;44.57;100813.75;5095788;28;20383;-70
2023/07/02 05:19:01;;;;;;;77.15;72.18;;;;;;;21.69;44.78;100812.13;5095607;28;20032;-70
2023/07/02 05:21:27;;;;;;;72.45;68.55;;;;;;;21.67;44.54;100817.09;5094526;28;20028;-70
2023/07/02 05:23:52;;;;;;;74.38;69.90;;;;;;;21.66;44.72;100821.81;5095884;28;20114;-70
2023/07/02 05:26:17;;;;;;;71.18;67.32;;;;;;;21.65;44.87;100809.19;5094671;28;20035;-70
2023/07/02 05:28:44;;;;;;;70.40;66.53;;;;;;;21.64;44.92;100817.75;5095306;28;20086;-72
2023/07/02 05:31:09;;;;;;;74.53;69.88;;;;;;;21.63;44.36;100821.63;5095696;28;20506;-70
2023/07/02 05:33:35;;;;;;;74.82;69.50;;;;;;;21.63;44.60;100827.13;5095454;28;20032;-70
2023/07/02 05:36:00;;;;;;;73.10;69.00;;;;;;;21.61;44.49;100821.94;5095261;28;20031;-70
2023/07/02 05:38:26;;;;;;;74.72;70.70;;;;;;;21.60;44.48;100823.88;5095312;28;20024;-70
2023/07/02 05:40:51;;;;;;;75.07;70.30;;;;;;;21.60;44.61;100823.88;5095225;28;20028;-70
2023/07/02 05:43:17;;;;;;;72.25;68.28;;;;;;;21.59;44.82;100827.75;5077448;28;20032;-70
2023/07/02 05:45:42;;;;;;;74.82;70.20;;;;;;;21.58;44.82;100837.13;5094045;28;20476;-70
2023/07/02 05:48:07;;;;;;;74.00;69.25;;;;;;;21.58;44.77;100841.81;5095361;28;20036;-70
2023/07/02 05:50:33;;;;;;;70.63;66.63;;;;;;;21.58;44.41;100839.06;5095128;28;20028;-70
2023/07/02 05:52:59;;;;;;;70.03;66.43;;;;;;;21.57;44.62;100845.66;5095150;28;20042;-70
2023/07/02 05:55:24;;;;;;;69.57;65.22;;;;;;;21.56;44.72;100849.56;5094124;28;20486;-70
2023/07/02 05:57:49;;;;;;;70.10;66.13;;;;;;;21.56;44.76;100855.84;5094914;28;20036;-73
2023/07/02 06:00:15;;;;;;;73.05;69.03;;;;;;;21.55;44.45;100843.25;5094983;28;20122;-70
2023/07/02 06:02:41;;;;;;;71.70;67.65;;;;;;;21.55;44.70;100846.00;5094502;28;20044;-70
2023/07/02 06:05:06;;;;;;;70.88;67.18;;;;;;;21.54;44.79;100844.34;5094805;28;20036;-72
2023/07/02 06:07:32;;;;;;;72.53;68.70;;;;;;;21.54;44.46;100843.56;5093652;28;20035;-70
2023/07/02 06:09:57;;;;;;;73.57;69.10;;;;;;;21.53;44.34;100848.25;5094924;28;20048;-70
2023/07/02 06:12:23;;;;;;;70.07;66.38;;;;;;;21.53;44.67;100844.69;5093434;28;20024;-70
2023/07/02 06:14:48;;;;;;;72.68;68.93;;;;;;;21.52;44.27;100854.03;5094617;28;20032;-70
2023/07/02 06:17:15;;;;;;;69.70;65.57;;;;;;;21.53;44.29;100855.69;5094808;28;20456;-70
2023/07/02 06:19:40;;;;;;;73.07;68.47;;;;;;;21.53;44.33;100852.94;5094526;28;20553;-70
2023/07/02 06:22:06;;;;;;;70.47;66.57;;;;;;;21.53;44.28;100855.69;5094406;28;20110;-70
2023/07/02 06:24:31;;;;;;;69.30;65.72;;;;;;;21.53;44.57;100852.94;5094512;28;20425;-69
2023/07/02 06:26:57;;;;;;;74.93;70.47;;;;;;;21.53;44.29;100850.19;5094666;28;20111;-70
2023/07/02 06:29:23;;;;;;;70.13;66.20;;;;;;;21.52;44.42;100857.63;5093044;28;20035;-70
2023/07/02 06:31:49;;;;;;;69.32;65.57;;;;;;;21.52;44.71;100859.53;5094421;28;20038;-70
2023/07/02 06:34:15;;;;;;;69.55;66.00;;;;;;;21.52;44.33;100863.13;5094139;28;20137;-70
2023/07/02 06:36:40;;;;;;;70.35;66.78;;;;;;;21.52;44.56;100856.78;5092642;28;20068;-70
2023/07/02 06:39:06;;;;;;;71.88;67.32;;;;;;;21.51;44.27;100866.97;5093919;28;20032;-70
2023/07/02 06:41:31;;;;;;;72.32;68.00;;;;;;;21.52;44.61;100876.88;5094230;28;20062;-70
2023/07/02 06:43:56;;;;;;;74.55;70.05;;;;;;;21.52;44.19;100876.03;5093681;28;20115;-70
2023/07/02 06:46:22;;;;;;;70.60;66.75;;;;;;;21.52;44.25;100878.78;5093917;28;20427;-70
2023/07/02 06:48:47;;;;;;;69.93;66.50;;;;;;;21.52;44.38;100876.03;5093821;28;20028;-70
2023/07/02 06:51:14;;;;;;;72.25;68.32;;;;;;;21.53;44.40;100877.69;5076043;28;20020;-70
2023/07/02 06:53:41;;;;;;;70.18;66.70;;;;;;;21.51;44.42;100894.47;5093820;28;20032;-71
2023/07/02 06:56:09;;;;;;;72.95;69.45;;;;;;;21.51;44.53;100897.22;5093687;28;20074;-70
2023/07/02 06:58:34;;;;;;;70.47;66.78;;;;;;;21.52;44.27;100895.28;5093656;28;20063;-70
2023/07/02 07:01:00;;;;;;;74.72;70.38;;;;;;;21.52;44.67;100898.84;5093643;28;20470;-70
2023/07/02 07:03:26;;;;;;;67.30;64.00;;;;;;;21.52;44.66;100909.00;5094207;28;20087;-70
2023/07/02 07:05:51;;;;;;;70.65;66.53;;;;;;;21.52;44.33;100912.59;5093065;28;20083;-70
2023/07/02 07:08:16;;;;;;;70.75;67.07;;;;;;;21.53;44.09;100911.47;5094290;28;20039;-69
2023/07/02 07:10:42;;;;;;;67.30;64.03;;;;;;;21.54;44.27;100918.56;5093588;28;20107;-69
2023/07/02 07:13:07;;;;;;;67.45;64.32;;;;;;;21.54;44.18;100912.28;5092435;28;20035;-70
2023/07/02 07:15:34;;;;;;;71.22;67.57;;;;;;;21.55;44.40;100913.91;5093466;28;20067;-70
2023/07/02 07:18:00;;;;;;;69.75;65.75;;;;;;;21.55;43.94;100920.22;5093338;28;20040;-70
2023/07/02 07:20:25;;;;;;;68.35;64.65;;;;;;;21.56;44.05;100929.25;5092216;28;20492;-69
2023/07/02 07:22:51;;;;;;;68.35;64.85;;;;;;;21.56;44.01;100918.28;5092896;28;20039;-70
2023/07/02 07:25:16;;;;;;;66.43;63.00;;;;;;;21.57;44.44;100926.22;5093299;28;20032;-70
2023/07/02 07:27:41;;;;;;;69.72;66.32;;;;;;;21.56;43.94;100921.81;5093375;28;20024;-70
2023/07/02 07:30:07;;;;;;;69.55;66.05;;;;;;;21.58;43.80;100930.56;5093383;28;20036;-69
2023/07/02 07:32:32;;;;;;;69.35;65.65;;;;;;;21.60;44.24;100935.78;5093738;28;20430;-69
2023/07/02 07:34:58;;;;;;;72.38;67.68;;;;;;;21.61;44.41;100938.19;5092046;28;20101;-73
2023/07/02 07:37:25;;;;;;;70.70;66.75;;;;;;;21.60;44.21;100941.28;5092964;28;20035;-70
2023/07/02 07:39:50;;;;;;;68.07;64.97;;;;;;;21.61;43.90;100945.63;5093169;28;20044;-70
2023/07/02 07:42:16;;;;;;;73.30;69.10;;;;;;;21.62;44.38;100944.53;5092477;28;20031;-70
2023/07/02 07:44:42;;;;;;;69.72;66.13;;;;;;;21.63;43.70;100945.34;5092896;28;20025;-70
2023/07/02 07:47:07;;;;;;;69.18;65.70;;;;;;;21.63;44.19;100948.88;5092648;28;20179;-70
2023/07/02 07:49:33;;;;;;;69.97;66.57;;;;;;;21.64;43.73;100956.00;5091904;28;20040;-70
2023/07/02 07:51:58;;;;;;;65.70;62.58;;;;;;;21.66;44.03;100950.19;5093152;28;20036;-70
2023/07/02 07:54:24;;;;;;;67.22;63.95;;;;;;;21.66;43.88;100942.75;5092331;28;20056;-70
2023/07/02 07:56:50;;;;;;;68.60;65.25;;;;;;;21.68;43.67;100950.72;5092672;28;20197;-70
2023/07/02 07:59:15;;;;;;;71.13;67.35;;;;;;;21.68;43.85;100957.00;5091871;28;20504;-70
2023/07/02 08:01:41;;;;;;;68.63;65.32;;;;;;;21.69;44.00;100950.38;5092773;28;20143;-70
2023/07/02 08:04:06;;;;;;;70.72;67.15;;;;;;;21.70;43.90;100951.22;5093018;28;20032;-70
2023/07/02 08:06:31;;;;;;;71.05;67.75;;;;;;;21.71;43.42;100955.56;5092749;28;20028;-70
2023/07/02 08:08:57;;;;;;;72.93;68.70;;;;;;;21.71;43.75;100948.13;5093191;28;20065;-70
2023/07/02 08:11:22;;;;;;;70.03;65.70;;;;;;;21.72;43.58;100951.69;5092248;28;20492;-70
2023/07/02 08:13:48;;;;;;;73.20;69.00;;;;;;;21.72;43.65;100947.03;5093448;28;20074;-70
2023/07/02 08:16:13;;;;;;;72.15;68.55;;;;;;;21.74;43.59;100952.19;5091717;28;20028;-70
2023/07/02 08:18:39;;;;;;;71.55;67.50;;;;;;;21.75;43.85;100946.38;5093078;28;20077;-70
2023/07/02 08:21:06;;;;;;;70.00;66.45;;;;;;;21.76;43.37;100959.00;5092878;28;20107;-73
2023/07/02 08:23:32;;;;;;;71.35;67.75;;;;;;;21.78;43.42;100961.44;5092860;28;20032;-70
2023/07/02 08:25:57;;;;;;;69.93;66.63;;;;;;;21.79;43.62;100957.56;5092934;28;20028;-70
2023/07/02 08:28:22;;;;;;;71.38;67.85;;;;;;;21.80;43.33;100965.50;5091250;28;20089;-70
2023/07/02 08:30:48;;;;;;;67.95;64.75;;;;;;;21.81;43.67;100963.56;5091533;28;20028;-70
2023/07/02 08:33:13;;;;;;;72.10;68.50;;;;;;;21.82;43.55;100956.94;5092789;28;20067;-72
2023/07/02 08:35:39;;;;;;;72.28;68.55;;;;;;;21.83;43.59;100959.38;5095414;28;20032;-70
2023/07/02 08:38:04;;;;;;;72.38;68.40;;;;;;;21.86;43.27;100960.69;5096598;28;20040;-72
2023/07/02 08:40:30;;;;;;;71.75;68.47;;;;;;;21.87;43.03;100965.06;5095178;28;20497;-70
2023/07/02 08:42:55;;;;;;;71.45;67.70;;;;;;;21.88;43.63;100963.94;5096317;28;20040;-70
2023/07/02 08:45:24;;;;;;;69.40;65.90;;;;;;;21.90;43.23;100966.38;5078711;28;20024;-70
2023/07/02 08:47:50;;;;;;;69.75;66.28;;;;;;;21.92;43.24;100969.63;5096316;28;20032;-70
2023/07/02 08:50:16;;;;;;;73.85;69.95;;;;;;;21.92;43.22;100964.91;5096206;28;20082;-70
2023/07/02 08:52:44;;;;;;;70.53;66.97;;;;;;;21.95;42.91;100974.50;5096361;28;20032;-71
2023/07/02 08:55:10;;;;;;;72.15;68.65;;;;;;;21.97;42.90;100972.25;5096119;28;20109;-70
2023/07/02 08:57:36;;;;;;;68.93;65.32;;;;;;;21.98;42.91;100974.69;5096076;28;20031;-70
2023/07/02 09:00:11;;;;;;;72.50;68.28;;;;;;;22.00;42.49;100971.63;5096854;28;20032;-71
2023/07/02 09:02:36;;;;;;;69.63;66.43;;;;;;;22.02;42.51;100978.44;5094467;28;20510;-70
2023/07/02 09:05:03;;;;;;;73.25;69.22;;;;;;;22.04;42.78;100976.16;5096013;28;20080;-71
2023/07/02 09:07:28;;;;;;;72.63;69.03;;;;;;;22.05;42.90;100977.00;5094929;28;20024;-72
2023/07/02 09:09:53;;;;;;;71.72;67.38;;;;;;;22.08;42.80;100975.56;5094685;28;20055;-71
2023/07/02 09:12:27;;;;;;;77.03;72.90;;;;;;;22.09;42.68;100975.22;5096074;28;20076;-73
2023/07/02 09:14:57;;;;;;;73.38;69.78;;;;;;;22.10;42.62;100974.13;5096353;28;20032;-72
2023/07/02 09:17:28;;;;;;;74.85;70.85;;;;;;;22.13;42.18;100975.44;5094179;28;20445;-72
2023/07/02 09:19:53;;;;;;;74.03;70.15;;;;;;;22.15;42.30;100984.16;5095943;28;20406;-71
2023/07/02 09:22:19;;;;;;;74.30;70.90;;;;;;;22.16;42.39;100974.78;5095530;28;20028;-71
2023/07/02 09:24:55;;;;;;;71.47;67.97;;;;;;;22.18;42.40;100978.84;5094775;28;20035;-71
2023/07/02 09:27:21;;;;;;;74.75;70.95;;;;;;;22.19;42.56;100983.25;5095058;28;20047;-69
2023/07/02 09:29:53;;;;;;;76.60;72.60;;;;;;;22.23;42.23;100983.44;5094064;28;20032;-69
2023/07/02 09:32:28;;;;;;;74.57;70.78;;;;;;;22.24;42.30;100977.59;5095325;28;20043;-69
2023/07/02 09:34:58;;;;;;;72.65;69.03;;;;;;;22.27;42.32;100976.16;5094008;28;20149;-70
2023/07/02 09:37:23;;;;;;;76.80;72.72;;;;;;;22.29;42.25;100976.66;5095288;28;20088;-70
2023/07/02 09:39:55;;;;;;;75.90;72.18;;;;;;;22.32;42.36;100976.03;5095021;28;20051;-71
2023/07/02 09:42:21;;;;;;;76.40;72.50;;;;;;;22.35;42.31;100980.09;5095453;28;20035;-69
2023/07/02 09:44:48;;;;;;;74.00;70.55;;;;;;;22.36;42.12;100977.03;5095141;28;20551;-69
2023/07/02 09:47:18;;;;;;;75.03;71.22;;;;;;;22.39;42.47;100970.06;5094409;28;20024;-70
2023/07/02 09:49:48;;;;;;;74.32;70.50;;;;;;;22.41;42.14;100974.13;5093707;28;20069;-71
2023/07/02 09:52:14;;;;;;;75.80;71.57;;;;;;;22.43;41.94;100971.88;5094378;28;20119;-73
2023/07/02 09:54:41;;;;;;;71.30;67.60;;;;;;;22.45;42.20;100986.16;5095334;28;20520;-70
2023/07/02 09:57:07;;;;;;;76.80;73.15;;;;;;;22.49;42.22;100989.06;5094760;28;20051;-71
2023/07/02 09:59:32;;;;;;;79.43;75.45;;;;;;;22.52;42.25;100993.94;5095250;28;20028;-71
2023/07/02 10:01:59;;;;;;;75.53;71.93;;;;;;;22.54;42.62;100991.69;5093453;28;20052;-70
2023/07/02 10:04:24;;;;;;;79.40;74.78;;;;;;;22.56;42.15;100989.41;5094814;28;20101;-71
2023/07/02 10:06:55;;;;;;;78.00;74.22;;;;;;;22.59;42.18;100987.97;5095277;28;20055;-71
2023/07/02 10:09:33;;;;;;;77.38;73.45;;;;;;;22.61;42.40;100996.75;5094389;28;20028;-72
2023/07/02 10:11:59;;;;;;;;;;;;;;;22.63;42.09;100998.03;5094240;28;20536;-69
2023/07/02 10:14:24;;;;;;;78.35;73.90;;;;;;;22.65;41.76;100998.53;5094601;28;19912;-69
2023/07/02 10:16:53;;;;;;;79.20;74.80;;;;;;;22.66;41.93;100994.66;5094727;28;20043;-69
2023/07/02 10:19:20;;;;;;;77.35;73.35;;;;;;;22.69;41.48;100999.50;5095012;28;20020;-70
2023/07/02 10:21:46;;;;;;;77.47;73.57;;;;;;;22.72;41.65;101009.06;5093497;28;20032;-70
2023/07/02 10:24:13;;;;;;;83.72;78.00;;;;;;;22.74;41.49;101006.00;5094019;28;20487;-70
2023/07/02 10:26:50;;;;;;;76.82;73.22;;;;;;;22.76;41.96;101015.59;5094569;28;20078;-71
2023/07/02 10:29:18;;;;;;;75.95;72.55;;;;;;;22.78;41.89;101007.81;5094707;28;20096;-73
2023/07/02 10:31:55;;;;;;;79.65;75.53;;;;;;;22.82;41.45;101017.03;5094379;28;20107;-70
2023/07/02 10:34:34;;;;;;;78.70;74.90;;;;;;;22.85;41.88;101016.41;5094257;28;20139;-69
2023/07/02 10:37:03;;;;;;;76.60;73.10;;;;;;;22.86;41.86;101018.03;5094317;28;20028;-69
2023/07/02 10:39:32;;;;;;;79.85;75.82;;;;;;;22.90;41.44;101018.19;5094071;28;20040;-69
2023/07/02 10:42:07;;;;;;;;;;;;;;;22.93;41.70;101019.50;5094615;28;20445;-70
2023/07/02 10:44:33;;;;;;;76.88;72.40;;;;;;;22.95;41.93;101017.25;5092829;28;19998;-70
2023/07/02 10:46:58;;;;;;;77.38;73.53;;;;;;;22.95;41.64;101012.53;5092792;28;20075;-70
2023/07/02 10:49:30;;;;;;;83.13;78.53;;;;;;;22.98;41.88;101011.97;5092817;28;20077;-69
2023/07/02 10:51:57;;;;;;;80.50;75.57;;;;;;;23.01;42.05;101010.50;5093808;28;20032;-69
2023/07/02 10:54:23;;;;;;;82.70;78.63;;;;;;;23.02;41.63;101010.16;5093048;28;20426;-70
2023/07/02 10:56:48;;;;;;;84.18;79.93;;;;;;;23.05;42.04;101009.53;5093541;28;20028;-71
2023/07/02 10:59:23;;;;;;;82.43;78.35;;;;;;;23.07;41.82;100993.50;5092474;28;20441;-70
2023/07/02 11:01:50;;;;;;;81.00;77.03;;;;;;;23.09;41.48;101002.25;5094013;28;20059;-69
2023/07/02 11:04:16;;;;;;;86.70;81.85;;;;;;;23.11;41.53;100996.44;5094031;28;20039;-70
2023/07/02 11:06:41;;;;;;;82.20;77.28;;;;;;;23.15;41.53;101004.84;5093589;28;20024;-70
2023/07/02 11:09:17;;;;;;;82.20;77.78;;;;;;;23.17;41.91;100994.31;5093646;28;20032;-70